Oyvind — LF5804 — position and weather

sailwx.info

Track history (hours):
 
Tides and Currents Weather Stations Pressure Air Temp Water Temp Dewpoint Dewpoint Depression Visibility Wind Speed Wind Dir Waves Ship Positions

Oyvind

Last reported at 2017-Nov-16 09:04 UTC. Time now 2017-Dec-13 14:56 UTC.
Position N 69°44' E 030°02'.
Warning: this ship's position is 27 days out of date.

Length 8 m.

Type: Passenger vessel. MMSI: 257006190.

Date/timePositionNaut miles runAvg speedWind from/ knotsBaromVisibWave heightAir tempDewpointWater temp
2017-Nov-16 09:04N 69°44' E 030°02'0 0.0
2017-Nov-16 08:58N 69°44' E 030°02'0 0.0
2017-Nov-16 08:28N 69°44' E 030°02'0 0.0
2017-Nov-16 07:16N 69°44' E 030°02'0 0.0
2017-Nov-16 06:57N 69°44' E 030°02'0 0.0
2017-Nov-15 13:42N 69°44' E 030°02'0 0.0
2017-Nov-15 13:26N 69°44' E 030°02'4 9.4
2017-Nov-15 12:59N 69°41' E 029°54'0 0.0
2017-Nov-14 12:44N 69°41' E 029°54'1 4.8
2017-Nov-14 12:29N 69°42' E 029°55'4 8.2
2017-Nov-14 11:58N 69°44' E 030°05'2 4.5
2017-Nov-14 11:30N 69°46' E 030°05'2 4.4
2017-Nov-14 11:00N 69°48' E 030°03'0 0.6
2017-Nov-14 10:31N 69°48' E 030°04'3 0.1
2017-Nov-12 13:25N 69°45' E 030°03'2 5.2
2017-Nov-12 13:01N 69°47' E 030°01'2 3.1
2017-Nov-12 12:30N 69°48' E 030°04'0 0.2
2017-Nov-12 12:00N 69°48' E 030°04'5 9.1
2017-Nov-12 11:30N 69°44' E 030°02'3 3.6
2017-Nov-12 10:34N 69°41' E 029°55'0 4.2
2017-Nov-12 10:29N 69°42' E 029°55'4 9.5
2017-Nov-12 10:01N 69°45' E 030°04'3 6.1
2017-Nov-12 09:30N 69°48' E 030°03'0 0.4
2017-Nov-12 08:59N 69°48' E 030°03'1 1.1
2017-Nov-12 08:30N 69°48' E 030°01'1 2.0
2017-Nov-12 08:00N 69°47' E 029°59'1 1.6
2017-Nov-12 07:30N 69°47' E 030°01'2 4.0
2017-Nov-12 06:59N 69°45' E 030°04'1 0.1
2017-Nov-11 12:16N 69°44' E 030°02'1 5.7
2017-Nov-11 12:00N 69°45' E 030°04'5 0.2
2017-Nov-10 12:23N 69°41' E 029°55'1 0.5
2017-Nov-10 10:46N 69°41' E 029°54'1 4.3
2017-Nov-10 10:29N 69°42' E 029°55'4 8.2
2017-Nov-10 09:59N 69°45' E 030°03'1 2.1
2017-Nov-10 09:30N 69°44' E 030°01'4 0.1
2017-Nov-08 11:28N 69°41' E 029°54'0 0.0
2017-Nov-08 09:25N 69°41' E 029°54'0 0.0
2017-Nov-08 08:59N 69°41' E 029°54'0 0.0
2017-Nov-08 08:29N 69°41' E 029°54'4 7.3
2017-Nov-08 08:00N 69°44' E 030°00'1 1.3
2017-Nov-08 07:29N 69°44' E 030°02'4 8.7
2017-Nov-08 07:00N 69°41' E 029°54'3 0.1
2017-Nov-07 06:20N 69°43' E 029°59'2 2.7
2017-Nov-07 05:45N 69°44' E 030°02'415.6
2017-Nov-07 05:30N 69°41' E 029°55'  
Track history (hours):
 
Tides and Currents Weather Stations Pressure Air Temp Water Temp Dewpoint Dewpoint Depression Visibility Wind Speed Wind Dir Waves Ship Positions

Oyvind

Last reported at 2017-Nov-16 09:04 UTC. Time now 2017-Dec-13 14:56 UTC.
Position N 69°44' E 030°02'.
Warning: this ship's position is 27 days out of date.

Length 8 m.

Type: Passenger vessel. MMSI: 257006190.

Date/timePositionNaut miles runAvg speedWind from/ knotsBaromVisibWave heightAir tempDewpointWater temp
2017-Nov-16 09:04N 69°44' E 030°02'0 0.0
2017-Nov-16 08:58N 69°44' E 030°02'0 0.0
2017-Nov-16 08:28N 69°44' E 030°02'0 0.0
2017-Nov-16 07:16N 69°44' E 030°02'0 0.0
2017-Nov-16 06:57N 69°44' E 030°02'0 0.0
2017-Nov-15 13:42N 69°44' E 030°02'0 0.0
2017-Nov-15 13:26N 69°44' E 030°02'4 9.4
2017-Nov-15 12:59N 69°41' E 029°54'0 0.0
2017-Nov-14 12:44N 69°41' E 029°54'1 4.8
2017-Nov-14 12:29N 69°42' E 029°55'4 8.2
2017-Nov-14 11:58N 69°44' E 030°05'2 4.5
2017-Nov-14 11:30N 69°46' E 030°05'2 4.4
2017-Nov-14 11:00N 69°48' E 030°03'0 0.6
2017-Nov-14 10:31N 69°48' E 030°04'3 0.1
2017-Nov-12 13:25N 69°45' E 030°03'2 5.2
2017-Nov-12 13:01N 69°47' E 030°01'2 3.1
2017-Nov-12 12:30N 69°48' E 030°04'0 0.2
2017-Nov-12 12:00N 69°48' E 030°04'5 9.1
2017-Nov-12 11:30N 69°44' E 030°02'3 3.6
2017-Nov-12 10:34N 69°41' E 029°55'0 4.2
2017-Nov-12 10:29N 69°42' E 029°55'4 9.5
2017-Nov-12 10:01N 69°45' E 030°04'3 6.1
2017-Nov-12 09:30N 69°48' E 030°03'0 0.4
2017-Nov-12 08:59N 69°48' E 030°03'1 1.1
2017-Nov-12 08:30N 69°48' E 030°01'1 2.0
2017-Nov-12 08:00N 69°47' E 029°59'1 1.6
2017-Nov-12 07:30N 69°47' E 030°01'2 4.0
2017-Nov-12 06:59N 69°45' E 030°04'1 0.1
2017-Nov-11 12:16N 69°44' E 030°02'1 5.7
2017-Nov-11 12:00N 69°45' E 030°04'5 0.2
2017-Nov-10 12:23N 69°41' E 029°55'1 0.5
2017-Nov-10 10:46N 69°41' E 029°54'1 4.3
2017-Nov-10 10:29N 69°42' E 029°55'4 8.2
2017-Nov-10 09:59N 69°45' E 030°03'1 2.1
2017-Nov-10 09:30N 69°44' E 030°01'4 0.1
2017-Nov-08 11:28N 69°41' E 029°54'0 0.0
2017-Nov-08 09:25N 69°41' E 029°54'0 0.0
2017-Nov-08 08:59N 69°41' E 029°54'0 0.0
2017-Nov-08 08:29N 69°41' E 029°54'4 7.3
2017-Nov-08 08:00N 69°44' E 030°00'1 1.3
2017-Nov-08 07:29N 69°44' E 030°02'4 8.7
2017-Nov-08 07:00N 69°41' E 029°54'3 0.1
2017-Nov-07 06:20N 69°43' E 029°59'2 2.7
2017-Nov-07 05:45N 69°44' E 030°02'415.6
2017-Nov-07 05:30N 69°41' E 029°55'  

Dump ship's entire track history